createdAt,value
2017-10-19T00:00:24.068Z,1000.19
2017-10-19T00:01:24.067Z,1000.13
2017-10-19T00:02:24.040Z,1000.10
2017-10-19T00:03:24.084Z,1000.14
2017-10-19T00:04:24.019Z,1000.11
2017-10-19T00:05:23.991Z,1000.12
2017-10-19T00:06:24.004Z,1000.13
2017-10-19T00:07:23.979Z,1000.12
2017-10-19T00:08:23.974Z,1000.15
2017-10-19T00:09:24.020Z,1000.15
2017-10-19T00:10:23.936Z,1000.11
2017-10-19T00:11:23.947Z,1000.13
2017-10-19T00:12:23.918Z,1000.09
2017-10-19T00:13:23.917Z,1000.15
2017-10-19T00:14:23.907Z,1000.12
2017-10-19T00:15:23.943Z,1000.11
2017-10-19T00:16:23.889Z,1000.15
2017-10-19T00:17:23.856Z,1000.10
2017-10-19T00:18:23.859Z,1000.14
2017-10-19T00:19:23.836Z,1000.13
2017-10-19T00:20:23.828Z,1000.12
2017-10-19T00:21:23.851Z,1000.09
2017-10-19T00:22:23.802Z,1000.04
2017-10-19T00:23:23.793Z,1000.08
2017-10-19T00:24:23.788Z,1000.07
2017-10-19T00:25:23.778Z,1000.08
2017-10-19T00:26:23.810Z,1000.09
2017-10-19T00:27:23.742Z,1000.04
2017-10-19T00:28:23.730Z,1000.06
2017-10-19T00:29:23.739Z,1000.04
2017-10-19T00:30:23.722Z,1000.10
2017-10-19T00:31:44.783Z,1000.10
2017-10-19T00:32:23.679Z,1000.10
2017-10-19T00:33:23.696Z,1000.08
2017-10-19T00:34:23.668Z,1000.08
2017-10-19T00:35:23.649Z,1000.03
2017-10-19T00:36:23.636Z,1000.08
2017-10-19T00:37:23.982Z,1000.04
2017-10-19T00:38:23.616Z,1000.09
2017-10-19T00:39:23.610Z,1000.07
2017-10-19T00:40:23.613Z,1000.07
2017-10-19T00:41:23.600Z,1000.05
2017-10-19T00:42:23.584Z,1000.06
2017-10-19T00:43:23.612Z,1000.04
2017-10-19T00:44:23.558Z,1000.04
2017-10-19T00:45:23.534Z,1000.06
2017-10-19T00:46:23.522Z,1000.06
2017-10-19T00:47:23.524Z,1000.01
2017-10-19T00:48:23.498Z,1000.01
2017-10-19T00:49:23.923Z,1000.02
2017-10-19T00:50:23.482Z,1000.03
2017-10-19T00:51:23.467Z,1000.02
2017-10-19T00:52:23.458Z,1000.06
2017-10-19T00:53:23.453Z,1000.00
2017-10-19T00:54:23.436Z,1000.03
2017-10-19T00:55:23.568Z,1000.03
2017-10-19T00:56:23.411Z,1000.04
2017-10-19T00:57:23.409Z,1000.04
2017-10-19T00:58:23.391Z,1000.06
2017-10-19T00:59:23.376Z,1000.05
2017-10-19T01:00:23.386Z,1000.08
2017-10-19T01:01:23.421Z,1000.08
2017-10-19T01:02:23.346Z,1000.10
2017-10-19T01:03:23.336Z,1000.05
2017-10-19T01:04:23.324Z,1000.03
2017-10-19T01:05:23.310Z,1000.05
2017-10-19T01:06:23.309Z,1000.02
2017-10-19T01:07:23.345Z,1000.06
2017-10-19T01:08:23.277Z,1000.04
2017-10-19T01:09:23.265Z,1000.04
2017-10-19T01:10:23.249Z,1000.02
2017-10-19T01:11:23.255Z,1000.01
2017-10-19T01:12:23.226Z,1000.03
2017-10-19T01:13:23.275Z,1000.01
2017-10-19T01:14:23.205Z,1000.01
2017-10-19T01:15:23.192Z,999.98
2017-10-19T01:16:23.182Z,999.93
2017-10-19T01:17:23.167Z,999.98
2017-10-19T01:18:23.161Z,999.94
2017-10-19T01:19:23.308Z,999.94
2017-10-19T01:20:23.137Z,999.94
2017-10-19T01:21:23.122Z,999.93
2017-10-19T01:22:23.115Z,999.95
2017-10-19T01:23:23.094Z,999.98
2017-10-19T01:24:23.087Z,999.96
2017-10-19T01:25:23.442Z,999.97
2017-10-19T01:26:23.065Z,999.99
2017-10-19T01:27:23.053Z,999.95
2017-10-19T01:28:23.042Z,999.94
2017-10-19T01:29:23.026Z,999.96
2017-10-19T01:30:23.021Z,999.97
2017-10-19T01:31:23.054Z,999.94
2017-10-19T01:32:23.005Z,999.95
2017-10-19T01:33:22.984Z,999.93
2017-10-19T01:34:22.970Z,999.91
2017-10-19T01:35:22.962Z,999.95
2017-10-19T01:36:22.947Z,999.95
2017-10-19T01:37:22.997Z,999.97
2017-10-19T01:38:22.925Z,999.96
2017-10-19T01:39:22.913Z,1000.00
2017-10-19T01:40:22.898Z,999.97
2017-10-19T01:41:22.890Z,999.99
2017-10-19T01:42:22.877Z,999.98
2017-10-19T01:43:23.212Z,999.94
2017-10-19T01:44:22.849Z,999.92
2017-10-19T01:45:22.845Z,999.89
2017-10-19T01:46:22.828Z,999.94
2017-10-19T01:47:22.816Z,999.94
2017-10-19T01:48:22.805Z,999.91
2017-10-19T01:49:22.865Z,999.94
2017-10-19T01:50:22.812Z,999.97
2017-10-19T01:51:22.774Z,999.96
2017-10-19T01:52:22.756Z,999.98
2017-10-19T01:53:22.748Z,999.97
2017-10-19T01:54:22.739Z,999.96
2017-10-19T01:55:22.774Z,999.94
2017-10-19T01:56:22.720Z,999.98
2017-10-19T01:57:22.701Z,999.97
2017-10-19T01:58:22.692Z,999.93
2017-10-19T01:59:22.678Z,999.93
2017-10-19T02:00:22.679Z,999.90
2017-10-19T02:01:22.798Z,999.90
2017-10-19T02:02:22.645Z,999.90
2017-10-19T02:03:22.634Z,999.86
2017-10-19T02:04:22.619Z,999.87
2017-10-19T02:05:22.606Z,999.87
2017-10-19T02:06:22.595Z,999.87
2017-10-19T02:07:22.716Z,999.84
2017-10-19T02:08:22.572Z,999.87
2017-10-19T02:09:22.558Z,999.89
2017-10-19T02:10:22.547Z,999.87
2017-10-19T02:11:22.535Z,999.87
2017-10-19T02:12:22.530Z,999.88
2017-10-19T02:13:22.754Z,999.86
2017-10-19T02:14:22.499Z,999.84
2017-10-19T02:15:22.484Z,999.88
2017-10-19T02:16:22.474Z,999.90
2017-10-19T02:17:22.465Z,999.88
2017-10-19T02:18:22.452Z,999.89
2017-10-19T02:19:22.880Z,999.91
2017-10-19T02:20:22.427Z,999.89
2017-10-19T02:21:22.423Z,999.86
2017-10-19T02:22:22.406Z,999.89
2017-10-19T02:23:22.392Z,999.87
2017-10-19T02:24:22.376Z,999.83
2017-10-19T02:25:22.643Z,999.86
2017-10-19T02:26:22.355Z,999.85
2017-10-19T02:27:22.349Z,999.85
2017-10-19T02:28:22.332Z,999.84
2017-10-19T02:29:22.321Z,999.87
2017-10-19T02:30:22.310Z,999.86
2017-10-19T02:31:22.440Z,999.88
2017-10-19T02:32:22.282Z,999.84
2017-10-19T02:33:22.272Z,999.85
2017-10-19T02:34:22.261Z,999.85
2017-10-19T02:35:22.246Z,999.84
2017-10-19T02:36:22.239Z,999.85
2017-10-19T02:37:22.358Z,999.85
2017-10-19T02:38:22.219Z,999.91
2017-10-19T02:39:22.197Z,999.88
2017-10-19T02:40:22.191Z,999.86
2017-10-19T02:41:22.175Z,999.89
2017-10-19T02:42:22.165Z,999.90
2017-10-19T02:43:22.214Z,999.86
2017-10-19T02:44:22.146Z,999.84
2017-10-19T02:45:22.138Z,999.85
2017-10-19T02:46:22.119Z,999.84
2017-10-19T02:47:22.101Z,999.87
2017-10-19T02:48:22.104Z,999.87
2017-10-19T02:49:22.129Z,999.81
2017-10-19T02:50:22.070Z,999.86
2017-10-19T02:51:22.055Z,999.79
2017-10-19T02:52:22.047Z,999.82
2017-10-19T02:53:22.042Z,999.78
2017-10-19T02:54:22.023Z,999.78
2017-10-19T02:55:22.151Z,999.76
2017-10-19T02:56:22.003Z,999.75
2017-10-19T02:57:21.990Z,999.77
2017-10-19T02:58:21.975Z,999.78
2017-10-19T02:59:21.967Z,999.77
2017-10-19T03:00:21.956Z,999.74
2017-10-19T03:01:22.003Z,999.77
2017-10-19T03:02:21.927Z,999.78
2017-10-19T03:03:42.923Z,999.79
2017-10-19T03:04:21.899Z,999.80
2017-10-19T03:05:21.891Z,999.74
2017-10-19T03:06:21.881Z,999.79
2017-10-19T03:07:22.010Z,999.81
2017-10-19T03:08:21.850Z,999.85
2017-10-19T03:09:21.844Z,999.89
2017-10-19T03:10:21.831Z,999.92
2017-10-19T03:11:21.824Z,999.93
2017-10-19T03:12:21.805Z,999.94
2017-10-19T03:13:21.927Z,999.96
2017-10-19T03:14:21.787Z,999.99
2017-10-19T03:15:21.772Z,999.95
2017-10-19T03:16:21.759Z,1000.01
2017-10-19T03:17:21.757Z,999.98
2017-10-19T03:18:21.735Z,999.98
2017-10-19T03:19:21.789Z,999.97
2017-10-19T03:20:21.728Z,999.97
2017-10-19T03:21:21.700Z,999.98
2017-10-19T03:22:21.688Z,999.95
2017-10-19T03:23:21.675Z,999.98
2017-10-19T03:24:21.667Z,999.96
2017-10-19T03:25:21.698Z,999.94
2017-10-19T03:26:21.642Z,999.94
2017-10-19T03:27:21.623Z,999.94
2017-10-19T03:28:21.618Z,999.98
2017-10-19T03:29:21.597Z,999.94
2017-10-19T03:30:21.598Z,999.95
2017-10-19T03:31:21.642Z,999.92
2017-10-19T03:32:21.566Z,999.90
2017-10-19T03:33:21.551Z,999.92
2017-10-19T03:34:21.541Z,999.92
2017-10-19T03:35:21.530Z,999.95
2017-10-19T03:36:21.520Z,999.92
2017-10-19T03:37:21.540Z,999.94
2017-10-19T03:38:21.491Z,999.94
2017-10-19T03:39:21.482Z,999.94
2017-10-19T03:40:21.532Z,999.93
2017-10-19T03:41:21.470Z,999.93
2017-10-19T03:42:21.456Z,999.90
2017-10-19T03:43:21.433Z,999.89
2017-10-19T03:44:21.434Z,999.84
2017-10-19T03:45:21.411Z,999.84
2017-10-19T03:46:21.452Z,999.88
2017-10-19T03:47:21.402Z,999.84
2017-10-19T03:48:21.375Z,999.87
2017-10-19T03:49:21.365Z,999.87
2017-10-19T03:50:21.352Z,999.85
2017-10-19T03:51:21.349Z,999.87
2017-10-19T03:52:21.386Z,999.86
2017-10-19T03:53:21.330Z,999.82
2017-10-19T03:54:21.306Z,999.80
2017-10-19T03:55:21.300Z,999.76
2017-10-19T03:56:21.272Z,999.79
2017-10-19T03:57:21.264Z,999.78
2017-10-19T03:58:21.317Z,999.77
2017-10-19T03:59:21.241Z,999.74
2017-10-19T04:00:21.232Z,999.79
2017-10-19T04:01:21.227Z,999.75
2017-10-19T04:02:21.211Z,999.74
2017-10-19T04:03:21.191Z,999.76
2017-10-19T04:04:21.527Z,999.76
2017-10-19T04:05:21.172Z,999.77
2017-10-19T04:06:21.158Z,999.74
2017-10-19T04:07:21.147Z,999.75
2017-10-19T04:08:21.137Z,999.75
2017-10-19T04:09:21.124Z,999.73
2017-10-19T04:10:21.252Z,999.72
2017-10-19T04:11:21.105Z,999.71
2017-10-19T04:12:21.088Z,999.71
2017-10-19T04:13:21.069Z,999.72
2017-10-19T04:14:21.059Z,999.70
2017-10-19T04:15:21.048Z,999.69
2017-10-19T04:16:21.112Z,999.71
2017-10-19T04:17:21.024Z,999.68
2017-10-19T04:18:21.006Z,999.68
2017-10-19T04:19:20.997Z,999.66
2017-10-19T04:20:20.994Z,999.63
2017-10-19T04:21:20.973Z,999.63
2017-10-19T04:22:21.100Z,999.62
2017-10-19T04:23:20.958Z,999.57
2017-10-19T04:24:20.941Z,999.59
2017-10-19T04:25:20.926Z,999.55
2017-10-19T04:26:20.906Z,999.55
2017-10-19T04:27:20.901Z,999.54
2017-10-19T04:28:21.254Z,999.55
2017-10-19T04:29:20.876Z,999.52
2017-10-19T04:30:20.877Z,999.51
2017-10-19T04:31:20.852Z,999.49
2017-10-19T04:32:20.843Z,999.46
2017-10-19T04:33:20.829Z,999.50
2017-10-19T04:34:20.873Z,999.49
2017-10-19T04:35:20.796Z,999.48
2017-10-19T04:36:20.790Z,999.43
2017-10-19T04:37:20.790Z,999.46
2017-10-19T04:38:20.767Z,999.44
2017-10-19T04:39:20.766Z,999.47
2017-10-19T04:40:20.881Z,999.43
2017-10-19T04:41:20.739Z,999.46
2017-10-19T04:42:20.723Z,999.48
2017-10-19T04:43:20.705Z,999.52
2017-10-19T04:44:20.690Z,999.51
2017-10-19T04:45:20.681Z,999.52
2017-10-19T04:46:21.110Z,999.50
2017-10-19T04:47:20.652Z,999.48
2017-10-19T04:48:20.645Z,999.53
2017-10-19T04:49:20.641Z,999.49
2017-10-19T04:50:20.668Z,999.55
2017-10-19T04:51:20.609Z,999.56
2017-10-19T04:52:20.660Z,999.56
2017-10-19T04:53:20.578Z,999.56
2017-10-19T04:54:20.571Z,999.54
2017-10-19T04:55:20.551Z,999.53
2017-10-19T04:56:20.544Z,999.52
2017-10-19T04:57:20.533Z,999.53
2017-10-19T04:58:20.666Z,999.53
2017-10-19T04:59:20.505Z,999.53
2017-10-19T05:00:20.494Z,999.54
2017-10-19T05:01:20.484Z,999.54
2017-10-19T05:02:20.468Z,999.56
2017-10-19T05:03:20.466Z,999.59
2017-10-19T05:04:20.801Z,999.59
2017-10-19T05:05:20.442Z,999.59
2017-10-19T05:06:20.422Z,999.58
2017-10-19T05:07:20.417Z,999.53
2017-10-19T05:08:20.396Z,999.54
2017-10-19T05:09:20.392Z,999.54
2017-10-19T05:10:20.530Z,999.51
2017-10-19T05:11:20.365Z,999.50
2017-10-19T05:12:20.350Z,999.51
2017-10-19T05:13:20.335Z,999.51
2017-10-19T05:14:20.321Z,999.49
2017-10-19T05:15:20.320Z,999.49
2017-10-19T05:16:20.359Z,999.46
2017-10-19T05:17:20.294Z,999.50
2017-10-19T05:18:20.280Z,999.48
2017-10-19T05:19:20.264Z,999.50
2017-10-19T05:20:20.250Z,999.48
2017-10-19T05:21:20.239Z,999.48
2017-10-19T05:22:20.370Z,999.50
2017-10-19T05:23:20.213Z,999.47
2017-10-19T05:24:20.211Z,999.47
2017-10-19T05:25:20.187Z,999.48
2017-10-19T05:26:20.181Z,999.45
2017-10-19T05:27:20.162Z,999.48
2017-10-19T05:28:20.217Z,999.49
2017-10-19T05:29:20.148Z,999.48
2017-10-19T05:30:20.128Z,999.49
2017-10-19T05:31:20.112Z,999.51
2017-10-19T05:32:20.100Z,999.50
2017-10-19T05:33:20.095Z,999.52
2017-10-19T05:34:20.188Z,999.52
2017-10-19T05:35:20.072Z,999.54
2017-10-19T05:36:20.067Z,999.52
2017-10-19T05:37:20.043Z,999.53
2017-10-19T05:38:20.025Z,999.50
2017-10-19T05:39:20.013Z,999.50
2017-10-19T05:40:20.067Z,999.49
2017-10-19T05:41:19.991Z,999.51
2017-10-19T05:42:19.980Z,999.51
2017-10-19T05:43:19.963Z,999.50
2017-10-19T05:44:19.949Z,999.55
2017-10-19T05:45:19.940Z,999.53
2017-10-19T05:46:19.954Z,999.60
2017-10-19T05:47:19.915Z,999.61
2017-10-19T05:48:19.911Z,999.58
2017-10-19T05:49:19.898Z,999.60
2017-10-19T05:50:19.877Z,999.59
2017-10-19T05:51:20.028Z,999.55
2017-10-19T05:52:19.851Z,999.58
2017-10-19T05:53:19.840Z,999.58
2017-10-19T05:54:19.829Z,999.60
2017-10-19T05:55:19.812Z,999.58
2017-10-19T05:56:19.804Z,999.56
2017-10-19T05:57:19.920Z,999.59
2017-10-19T05:58:19.776Z,999.52
2017-10-19T05:59:19.765Z,999.53
2017-10-19T06:00:19.752Z,999.54
2017-10-19T06:01:19.741Z,999.55
2017-10-19T06:02:19.730Z,999.55
2017-10-19T06:03:19.851Z,999.55
2017-10-19T06:04:19.707Z,999.56
2017-10-19T06:05:19.699Z,999.55
2017-10-19T06:06:19.684Z,999.55
2017-10-19T06:07:19.671Z,999.55
2017-10-19T06:08:19.655Z,999.56
2017-10-19T06:09:19.699Z,999.61
2017-10-19T06:10:19.631Z,999.57
2017-10-19T06:11:19.614Z,999.59
2017-10-19T06:12:19.605Z,999.60
2017-10-19T06:13:19.596Z,999.58
2017-10-19T06:14:19.581Z,999.59
2017-10-19T06:15:19.631Z,999.60
2017-10-19T06:16:19.565Z,999.56
2017-10-19T06:17:19.546Z,999.60
2017-10-19T06:18:19.529Z,999.58
2017-10-19T06:19:19.516Z,999.59
2017-10-19T06:20:19.504Z,999.62
2017-10-19T06:21:19.632Z,999.63
2017-10-19T06:22:19.479Z,999.64
2017-10-19T06:23:19.492Z,999.67
2017-10-19T06:24:19.454Z,999.73
2017-10-19T06:25:19.445Z,999.70
2017-10-19T06:26:19.427Z,999.68
2017-10-19T06:27:19.774Z,999.71
2017-10-19T06:28:19.403Z,999.66
2017-10-19T06:29:19.393Z,999.66
2017-10-19T06:30:19.377Z,999.63
2017-10-19T06:31:19.364Z,999.67
2017-10-19T06:32:19.355Z,999.65
2017-10-19T06:33:19.399Z,999.67
2017-10-19T06:34:19.333Z,999.67
2017-10-19T06:35:19.317Z,999.69
2017-10-19T06:36:19.302Z,999.69
2017-10-19T06:37:19.295Z,999.71
2017-10-19T06:38:19.285Z,999.69
2017-10-19T06:39:19.415Z,999.75
2017-10-19T06:40:19.252Z,999.75
2017-10-19T06:41:19.247Z,999.77
2017-10-19T06:42:19.232Z,999.80
2017-10-19T06:43:19.219Z,999.78
2017-10-19T06:44:19.206Z,999.81
2017-10-19T06:45:19.392Z,999.90
2017-10-19T06:46:19.183Z,999.87
2017-10-19T06:47:19.165Z,999.85
2017-10-19T06:48:19.158Z,999.86
2017-10-19T06:49:19.141Z,999.86
2017-10-19T06:50:19.139Z,999.84
2017-10-19T06:51:19.171Z,999.84
2017-10-19T06:52:19.116Z,999.89
2017-10-19T06:53:19.099Z,999.90
2017-10-19T06:54:19.093Z,999.88
2017-10-19T06:55:19.068Z,999.91
2017-10-19T06:56:19.054Z,999.91
2017-10-19T06:57:19.102Z,999.92
2017-10-19T06:58:19.027Z,999.93
2017-10-19T06:59:19.030Z,999.95
2017-10-19T07:00:19.004Z,999.94
2017-10-19T07:01:18.993Z,999.91
2017-10-19T07:02:18.980Z,999.92
2017-10-19T07:03:19.035Z,999.92
2017-10-19T07:04:18.952Z,999.88
2017-10-19T07:05:18.943Z,999.88
2017-10-19T07:06:18.932Z,999.89
2017-10-19T07:07:18.918Z,999.86
2017-10-19T07:08:18.901Z,999.89
2017-10-19T07:09:18.920Z,999.87
2017-10-19T07:10:18.877Z,999.91
2017-10-19T07:11:18.866Z,999.94
2017-10-19T07:12:18.858Z,999.96
2017-10-19T07:13:19.281Z,1000.00
2017-10-19T07:14:18.828Z,999.99
2017-10-19T07:15:18.813Z,999.96
2017-10-19T07:16:18.805Z,1000.01
2017-10-19T07:17:18.791Z,999.99
2017-10-19T07:18:18.776Z,999.96
2017-10-19T07:19:19.121Z,999.93
2017-10-19T07:20:18.754Z,999.93
2017-10-19T07:21:18.743Z,999.89
2017-10-19T07:22:18.728Z,999.84
2017-10-19T07:23:18.716Z,999.89
2017-10-19T07:24:18.706Z,999.87
2017-10-19T07:25:18.747Z,999.88
2017-10-19T07:26:18.684Z,999.89
2017-10-19T07:27:18.671Z,999.91
2017-10-19T07:28:18.656Z,999.95
2017-10-19T07:29:18.639Z,999.89
2017-10-19T07:30:18.634Z,999.93
2017-10-19T07:31:18.719Z,999.96
2017-10-19T07:32:18.610Z,999.94
2017-10-19T07:33:18.592Z,999.92
2017-10-19T07:34:18.578Z,999.94
2017-10-19T07:35:18.574Z,999.91
2017-10-19T07:36:18.555Z,999.92
2017-10-19T07:37:18.584Z,999.87
2017-10-19T07:38:18.528Z,999.90
2017-10-19T07:39:18.518Z,999.89
2017-10-19T07:40:18.518Z,999.95
2017-10-19T07:41:18.525Z,999.93
2017-10-19T07:42:18.806Z,999.92
2017-10-19T07:43:18.468Z,999.87
2017-10-19T07:44:18.459Z,999.85
2017-10-19T07:45:18.449Z,999.86
2017-10-19T07:46:18.443Z,999.87
2017-10-19T07:47:18.422Z,999.85
2017-10-19T07:48:18.549Z,999.86
2017-10-19T07:49:18.398Z,999.83
2017-10-19T07:50:18.387Z,999.83
2017-10-19T07:51:18.383Z,999.80
2017-10-19T07:52:18.360Z,999.82
2017-10-19T07:53:18.349Z,999.79
2017-10-19T07:54:18.403Z,999.79
2017-10-19T07:55:18.326Z,999.83
2017-10-19T07:56:18.319Z,999.83
2017-10-19T07:57:18.305Z,999.81
2017-10-19T07:58:18.299Z,999.86
2017-10-19T07:59:18.274Z,999.84
2017-10-19T08:00:18.626Z,999.78
2017-10-19T08:01:18.246Z,999.80
2017-10-19T08:02:18.238Z,999.80
2017-10-19T08:03:18.235Z,999.80
2017-10-19T08:04:18.217Z,999.79
2017-10-19T08:05:18.197Z,999.77
2017-10-19T08:06:18.252Z,999.75
2017-10-19T08:07:18.180Z,999.74
2017-10-19T08:08:18.165Z,999.75
2017-10-19T08:09:18.151Z,999.74
2017-10-19T08:10:18.143Z,999.74
2017-10-19T08:11:18.132Z,999.76
2017-10-19T08:12:18.189Z,999.75
2017-10-19T08:13:18.107Z,999.72
2017-10-19T08:14:18.101Z,999.71
2017-10-19T08:15:18.075Z,999.72
2017-10-19T08:16:18.067Z,999.72
2017-10-19T08:17:18.061Z,999.72
2017-10-19T08:18:18.101Z,999.68
2017-10-19T08:19:18.028Z,999.70
2017-10-19T08:20:18.016Z,999.65
2017-10-19T08:21:18.013Z,999.66
2017-10-19T08:22:17.993Z,999.67
2017-10-19T08:23:17.986Z,999.63
2017-10-19T08:24:18.229Z,999.65
2017-10-19T08:25:17.963Z,999.60
2017-10-19T08:26:17.944Z,999.57
2017-10-19T08:27:17.935Z,999.59
2017-10-19T08:28:17.923Z,999.55
2017-10-19T08:29:17.911Z,999.52
2017-10-19T08:30:18.037Z,999.53
2017-10-19T08:31:17.888Z,999.52
2017-10-19T08:32:17.871Z,999.55
2017-10-19T08:33:17.865Z,999.51
2017-10-19T08:34:17.850Z,999.54
2017-10-19T08:35:17.849Z,999.57
2017-10-19T08:36:17.884Z,999.55
2017-10-19T08:37:17.813Z,999.56
2017-10-19T08:38:17.804Z,999.57
2017-10-19T08:39:17.788Z,999.56
2017-10-19T08:40:17.778Z,999.57
2017-10-19T08:41:17.773Z,999.59
2017-10-19T08:42:18.216Z,999.59
2017-10-19T08:43:17.738Z,999.57
2017-10-19T08:44:17.732Z,999.56
2017-10-19T08:45:17.716Z,999.59
2017-10-19T08:46:17.713Z,999.59
2017-10-19T08:47:17.693Z,999.62
2017-10-19T08:48:18.123Z,999.59
2017-10-19T08:49:17.690Z,999.62
2017-10-19T08:50:17.661Z,999.59
2017-10-19T08:51:17.647Z,999.58
2017-10-19T08:52:17.633Z,999.55
2017-10-19T08:53:17.620Z,999.52
2017-10-19T08:54:17.758Z,999.55
2017-10-19T08:55:17.597Z,999.58
2017-10-19T08:56:17.587Z,999.57
2017-10-19T08:57:17.583Z,999.58
2017-10-19T08:58:17.583Z,999.59
2017-10-19T08:59:17.558Z,999.61
2017-10-19T09:00:17.570Z,999.61
2017-10-19T09:01:17.529Z,999.63
2017-10-19T09:02:17.520Z,999.66
2017-10-19T09:03:17.543Z,999.72
2017-10-19T09:04:17.504Z,999.70
2017-10-19T09:05:17.484Z,999.72
2017-10-19T09:06:17.470Z,999.73
2017-10-19T09:07:17.463Z,999.70
2017-10-19T09:08:17.600Z,999.73
2017-10-19T09:09:17.441Z,999.76
2017-10-19T09:10:17.432Z,999.77
2017-10-19T09:11:17.417Z,999.72
2017-10-19T09:12:17.397Z,999.78
2017-10-19T09:13:17.388Z,999.78
2017-10-19T09:14:17.511Z,999.81
2017-10-19T09:15:17.367Z,999.86
2017-10-19T09:16:17.351Z,999.83
2017-10-19T09:17:17.346Z,999.84
2017-10-19T09:18:17.331Z,999.84
2017-10-19T09:19:17.325Z,999.84
2017-10-19T09:20:17.365Z,999.88
2017-10-19T09:21:17.298Z,999.90
2017-10-19T09:22:17.294Z,999.85
2017-10-19T09:23:17.282Z,999.86
2017-10-19T09:26:45.170Z,999.88
2017-10-19T09:32:29.661Z,999.81
2017-10-19T09:33:29.658Z,999.84
2017-10-19T09:38:16.351Z,999.85
2017-10-19T09:39:15.850Z,999.85
2017-10-19T09:40:15.793Z,999.86
2017-10-19T09:41:16.614Z,999.90
2017-10-19T09:42:16.291Z,999.85
2017-10-19T09:43:15.767Z,999.82
2017-10-19T09:44:15.806Z,999.78
2017-10-19T09:45:15.726Z,999.78
2017-10-19T09:46:15.716Z,999.77
2017-10-19T09:47:15.699Z,999.82
2017-10-19T09:48:15.691Z,999.79
2017-10-19T09:49:15.714Z,999.79
2017-10-19T09:50:15.727Z,999.74
2017-10-19T09:51:15.656Z,999.79
2017-10-19T09:52:15.653Z,999.79
2017-10-19T09:53:15.635Z,999.78
2017-10-19T09:54:15.619Z,999.80
2017-10-19T09:55:15.614Z,999.83
2017-10-19T09:56:18.032Z,999.79
2017-10-19T09:57:15.590Z,999.78
2017-10-19T09:58:15.573Z,999.83
2017-10-19T10:16:12.235Z,999.71
2017-10-19T10:18:43.910Z,999.72
2017-10-19T10:19:43.889Z,999.71
2017-10-19T10:20:43.920Z,999.71
2017-10-19T10:23:22.992Z,999.70
2017-10-19T10:24:22.380Z,999.64
2017-10-19T10:25:22.308Z,999.66
2017-10-19T10:26:22.237Z,999.66
2017-10-19T10:27:22.243Z,999.65
2017-10-19T10:28:22.137Z,999.65
2017-10-19T10:29:22.787Z,999.65
2017-10-19T10:30:22.600Z,999.60
2017-10-19T10:31:22.100Z,999.62
2017-10-19T10:32:22.192Z,999.63
2017-10-19T10:33:22.054Z,999.60
2017-10-19T10:34:21.816Z,999.62
2017-10-19T10:35:22.528Z,999.57
2017-10-19T10:36:21.982Z,999.57
2017-10-19T10:37:21.876Z,999.55
2017-10-19T10:38:22.079Z,999.56
2017-10-19T10:39:22.075Z,999.56
2017-10-19T10:40:21.990Z,999.58
2017-10-19T10:41:22.487Z,999.50
2017-10-19T10:42:21.687Z,999.56
2017-10-19T10:43:22.084Z,999.56
2017-10-19T10:44:21.780Z,999.48
2017-10-19T10:45:22.031Z,999.48
2017-10-19T10:46:21.309Z,999.44
2017-10-19T10:47:21.352Z,999.46
2017-10-19T10:48:21.284Z,999.47
2017-10-19T10:49:21.276Z,999.48
2017-10-19T10:50:21.916Z,999.46
2017-10-19T10:51:21.252Z,999.45
2017-10-19T10:52:21.244Z,999.44
2017-10-19T10:53:21.259Z,999.40
2017-10-19T10:54:21.224Z,999.40
2017-10-19T10:55:21.220Z,999.45
2017-10-19T10:56:21.202Z,999.43
2017-10-19T10:57:21.197Z,999.42
2017-10-19T10:58:21.186Z,999.39
2017-10-19T10:59:21.190Z,999.42
2017-10-19T11:00:21.160Z,999.41
2017-10-19T11:01:21.149Z,999.42
2017-10-19T11:06:00.491Z,999.39
2017-10-19T11:07:00.214Z,999.38
2017-10-19T11:08:00.023Z,999.37
2017-10-19T11:09:00.016Z,999.31
2017-10-19T11:09:59.998Z,999.34
2017-10-19T11:10:59.994Z,999.34
2017-10-19T11:12:00.490Z,999.29
2017-10-19T11:12:59.965Z,999.28
2017-10-19T11:14:00.699Z,999.28
2017-10-19T11:15:00.526Z,999.31
2017-10-19T11:16:00.570Z,999.27
2017-10-19T11:17:00.718Z,999.25
2017-10-19T11:18:00.771Z,999.30
2017-10-19T11:19:00.346Z,999.26
2017-10-19T11:20:00.431Z,999.25
2017-10-19T11:20:59.886Z,999.25
2017-10-19T11:22:00.307Z,999.25
2017-10-19T11:22:59.860Z,999.24
2017-10-19T11:23:59.989Z,999.20
2017-10-19T11:24:59.836Z,999.16
2017-10-19T11:25:59.827Z,999.15
2017-10-19T11:26:59.819Z,999.13
2017-10-19T11:27:59.806Z,999.12
2017-10-19T11:28:59.803Z,999.11
2017-10-19T11:29:59.862Z,999.11
2017-10-19T11:30:59.784Z,999.09
2017-10-19T11:31:59.774Z,999.12
2017-10-19T11:32:59.754Z,999.08
2017-10-19T11:33:59.753Z,999.08
2017-10-19T11:34:59.742Z,999.05
2017-10-19T11:35:59.791Z,999.06
2017-10-19T11:36:59.721Z,999.05
2017-10-19T11:37:59.710Z,999.02
2017-10-19T11:38:59.704Z,999.00
2017-10-19T11:39:59.690Z,998.99
2017-10-19T11:40:59.685Z,998.95
2017-10-19T11:41:59.701Z,998.92
2017-10-19T11:42:59.668Z,998.90
2017-10-19T11:43:59.660Z,998.89
2017-10-19T11:44:59.709Z,998.84
2017-10-19T11:45:59.632Z,998.84
2017-10-19T11:46:59.636Z,998.83
2017-10-19T11:47:59.618Z,998.87
2017-10-19T11:48:59.602Z,998.85
2017-10-19T11:49:59.597Z,998.88
2017-10-19T11:50:59.970Z,998.81
2017-10-19T11:51:59.573Z,998.83
2017-10-19T11:52:59.573Z,998.80
2017-10-19T11:53:59.554Z,998.85
2017-10-19T11:54:59.546Z,998.79
2017-10-19T11:55:59.538Z,998.78
2017-10-19T11:56:59.606Z,998.73
2017-10-19T11:57:59.518Z,998.70
2017-10-19T11:58:59.517Z,998.72
2017-10-19T11:59:59.498Z,998.73
2017-10-19T12:00:59.496Z,998.73
2017-10-19T12:01:59.495Z,998.74
2017-10-19T12:02:59.919Z,998.67
2017-10-19T12:03:59.465Z,998.70
2017-10-19T12:04:59.462Z,998.73
2017-10-19T12:05:59.451Z,998.74
2017-10-19T12:06:59.441Z,998.72
2017-10-19T12:07:59.433Z,998.73
2017-10-19T12:08:59.586Z,998.72
2017-10-19T12:09:59.405Z,998.72
2017-10-19T12:10:59.398Z,998.68
2017-10-19T12:11:59.390Z,998.66
2017-10-19T12:12:59.378Z,998.62
2017-10-19T12:13:59.374Z,998.57
2017-10-19T12:14:59.424Z,998.62
2017-10-19T12:15:59.358Z,998.59
2017-10-19T12:16:59.341Z,998.56
2017-10-19T12:17:59.347Z,998.52
2017-10-19T12:18:59.324Z,998.51
2017-10-19T12:19:59.316Z,998.54
2017-10-19T12:20:59.378Z,998.48
2017-10-19T12:21:59.299Z,998.47
2017-10-19T12:22:59.289Z,998.44
2017-10-19T12:23:59.295Z,998.47
2017-10-19T12:24:59.273Z,998.44
2017-10-19T12:25:59.259Z,998.47
2017-10-19T12:26:59.755Z,998.49
2017-10-19T12:27:59.240Z,998.50
2017-10-19T12:28:59.235Z,998.51
2017-10-19T12:29:59.237Z,998.50
2017-10-19T12:30:59.215Z,998.57
2017-10-19T12:31:59.206Z,998.52
2017-10-19T12:32:59.262Z,998.54
2017-10-19T12:33:59.199Z,998.53
2017-10-19T12:34:59.181Z,998.52
2017-10-19T12:35:59.169Z,998.57
2017-10-19T12:36:59.167Z,998.55
2017-10-19T12:37:59.158Z,998.53
2017-10-19T12:38:59.537Z,998.53
2017-10-19T12:39:59.144Z,998.55
2017-10-19T12:40:59.134Z,998.53
2017-10-19T12:41:59.116Z,998.56
2017-10-19T12:42:59.127Z,998.52
2017-10-19T12:43:59.105Z,998.52
2017-10-19T12:44:59.148Z,998.51
2017-10-19T12:45:59.101Z,998.47
2017-10-19T12:46:59.074Z,998.47
2017-10-19T12:47:59.071Z,998.47
2017-10-19T12:48:59.057Z,998.44
2017-10-19T12:49:59.055Z,998.42
2017-10-19T12:50:59.084Z,998.41
2017-10-19T12:51:59.090Z,998.37
2017-10-19T12:52:59.024Z,998.36
2017-10-19T12:53:59.023Z,998.35
2017-10-19T12:54:59.078Z,998.37
2017-10-19T12:55:59.315Z,998.36
2017-10-19T12:56:58.991Z,998.36
2017-10-19T12:57:58.989Z,998.36
2017-10-19T12:58:58.990Z,998.32
2017-10-19T12:59:58.975Z,998.29
2017-10-19T13:00:58.989Z,998.29